»·PEaware :: N629J KLAS-KLAX

N629J :: KLAS-KLAX

FLIGHT INFORMATION

Flight Status: Arrived
Operator: Privately registered:
United States
More flights under this callsign
Pilot: Thiago S. (19132)
Aircraft: BEECH AIRCRAFT A90-E90 KING AIR
(BE9L)
More flights by this aircraft type
Origin: KLAS McCarran Intl
United States
Destination: KLAX Los Angeles Intl
United States
More flights between these airports :: More routes between these airports
Route: ++ GFS DAG PMD KIMMO3
File this flight plan on PilotEdge
Remarks:
Altitude:
(Current/Filed)
20,000ft
Speed:
(Current/Filed)
220kts
Departed: 18-Feb-19 07:22 PM
Arrived: 18-Feb-19 08:41 PM
Distance/Time
Traveled:
205nm/1:19
Distance/Time
To Go:
Arrived

Flight Plot

Page will automatically refresh every two minutes.

Flight plan parsing failed; only flown route is shown


Map Options




Map Legend


Flown Route
Filed Route
Departure Airport
Arrival Airport
Navaid (VOR, NDB)
Fix

Horizontal Profiles

Position Reports

Time Latitude Longitude Heading Altitude Ground
Speed
18-Feb-19 18:44 36.098537 -115.162050 0 2187ft 0kts
18-Feb-19 18:45 36.098537 -115.162050 0 2187ft 0kts
18-Feb-19 18:46 36.098537 -115.162050 0 2187ft 0kts
18-Feb-19 18:47 36.098200 -115.162050 0 2187ft 0kts
18-Feb-19 18:48 36.098164 -115.162050 0 2187ft 0kts
18-Feb-19 18:49 36.098164 -115.162050 0 2187ft 0kts
18-Feb-19 18:50 36.098164 -115.162050 0 2187ft 0kts
18-Feb-19 18:51 36.098166 -115.162050 0 2187ft 0kts
18-Feb-19 18:52 36.098171 -115.162050 359 2187ft 0kts
18-Feb-19 18:53 36.098175 -115.162050 359 2187ft 0kts
18-Feb-19 18:54 36.098178 -115.162050 359 2187ft 0kts
18-Feb-19 18:55 36.098182 -115.162050 359 2187ft 0kts
18-Feb-19 18:56 36.098186 -115.162050 359 2187ft 0kts
18-Feb-19 18:57 36.098190 -115.162050 359 2187ft 0kts
18-Feb-19 18:58 36.098194 -115.162050 359 2187ft 0kts
18-Feb-19 18:59 36.098198 -115.162050 359 2187ft 0kts
18-Feb-19 19:00 36.098201 -115.162050 359 2187ft 0kts
18-Feb-19 19:01 36.098205 -115.162050 359 2187ft 0kts
18-Feb-19 19:02 36.098209 -115.162051 359 2187ft 0kts
18-Feb-19 19:03 36.098213 -115.162051 359 2187ft 0kts
18-Feb-19 19:04 36.098217 -115.162051 359 2187ft 0kts
18-Feb-19 19:05 36.098242 -115.161490 89 2187ft 4kts
18-Feb-19 19:06 36.098247 -115.161136 90 2187ft 0kts
18-Feb-19 19:07 36.098134 -115.160654 113 2187ft 6kts
18-Feb-19 19:08 36.097267 -115.159304 205 2187ft 12kts
18-Feb-19 19:09 36.092410 -115.162099 205 2187ft 19kts
18-Feb-19 19:10 36.087497 -115.164907 206 2187ft 17kts
18-Feb-19 19:11 36.082614 -115.167722 204 2187ft 20kts
18-Feb-19 19:12 36.078142 -115.170231 202 2187ft 7kts
18-Feb-19 19:13 36.077988 -115.169739 93 2187ft 0kts
18-Feb-19 19:14 36.077988 -115.169737 93 2187ft 0kts
18-Feb-19 19:15 36.077988 -115.169734 93 2187ft 0kts
18-Feb-19 19:16 36.077988 -115.169732 93 2187ft 0kts
18-Feb-19 19:17 36.077988 -115.169729 93 2187ft 0kts
18-Feb-19 19:18 36.077988 -115.169726 93 2187ft 0kts
18-Feb-19 19:19 36.077988 -115.169724 93 2187ft 0kts
18-Feb-19 19:20 36.077975 -115.169256 88 2187ft 16kts
18-Feb-19 19:21 36.095863 -115.157913 24 2685ft 110kts
18-Feb-19 19:22 36.120105 -115.168733 301 4099ft 120kts
18-Feb-19 19:23 36.136851 -115.207499 301 5073ft 151kts
18-Feb-19 19:24 36.116538 -115.243978 191 6115ft 160kts
18-Feb-19 19:25 36.074592 -115.252795 190 7532ft 144kts
18-Feb-19 19:26 36.034841 -115.260732 190 8819ft 152kts
18-Feb-19 19:27 35.990299 -115.261598 177 9859ft 169kts
18-Feb-19 19:28 35.941512 -115.258179 178 10889ft 179kts
18-Feb-19 19:29 35.891018 -115.255706 178 11892ft 184kts
18-Feb-19 19:30 35.839552 -115.253703 178 12892ft 185kts
18-Feb-19 19:31 35.787911 -115.251848 178 13886ft 184kts
18-Feb-19 19:32 35.737216 -115.247142 173 14875ft 181kts
18-Feb-19 19:33 35.687484 -115.240590 173 15861ft 178kts
18-Feb-19 19:34 35.638669 -115.234173 173 16847ft 174kts
18-Feb-19 19:35 35.591243 -115.227872 173 17828ft 169kts
18-Feb-19 19:36 35.545127 -115.221517 173 18802ft 163kts
18-Feb-19 19:37 35.500971 -115.214772 175 19723ft 159kts
18-Feb-19 19:38 35.453517 -115.208377 176 20182ft 188kts
18-Feb-19 19:39 35.395482 -115.201806 176 20082ft 226kts
18-Feb-19 19:40 35.329826 -115.191924 173 20069ft 238kts
18-Feb-19 19:41 35.263691 -115.180441 173 20070ft 242kts
18-Feb-19 19:42 35.196660 -115.172783 177 20070ft 242kts
18-Feb-19 19:43 35.132246 -115.182484 222 20065ft 232kts
18-Feb-19 19:44 35.112949 -115.252624 271 20072ft 221kts
18-Feb-19 19:45 35.111213 -115.327607 269 20072ft 222kts
18-Feb-19 19:46 35.101347 -115.403021 262 20075ft 224kts
18-Feb-19 19:47 35.092729 -115.478104 266 20078ft 223kts
18-Feb-19 19:48 35.085568 -115.552946 264 20081ft 225kts
18-Feb-19 19:49 35.078088 -115.629211 268 20088ft 224kts
18-Feb-19 19:50 35.070947 -115.705420 266 20089ft 225kts
18-Feb-19 19:51 35.061634 -115.781265 265 20093ft 226kts
18-Feb-19 19:52 35.052262 -115.857407 265 20094ft 226kts
18-Feb-19 19:53 35.043553 -115.933502 266 20095ft 227kts
18-Feb-19 19:54 35.032930 -116.009275 263 20098ft 228kts
18-Feb-19 19:55 35.018023 -116.084722 261 20092ft 226kts
18-Feb-19 19:56 35.010552 -116.159898 270 20092ft 222kts
18-Feb-19 19:57 35.002969 -116.235060 266 20101ft 224kts
18-Feb-19 19:58 34.993001 -116.310137 267 20101ft 224kts
18-Feb-19 19:59 34.984790 -116.385333 267 20101ft 224kts
18-Feb-19 20:00 34.975987 -116.460573 267 20101ft 224kts
18-Feb-19 20:01 34.967337 -116.535676 267 20101ft 224kts
18-Feb-19 20:02 34.955104 -116.610513 258 20103ft 228kts
18-Feb-19 20:03 34.935658 -116.684068 257 20102ft 228kts
18-Feb-19 20:04 34.916768 -116.757782 259 20103ft 228kts
18-Feb-19 20:05 34.899921 -116.832229 261 20102ft 227kts
18-Feb-19 20:06 34.885053 -116.907072 262 20103ft 227kts
18-Feb-19 20:08 34.870417 -116.982242 262 20104ft 228kts
18-Feb-19 20:09 34.854323 -117.056831 261 20106ft 229kts
18-Feb-19 20:10 34.836939 -117.131875 260 20098ft 230kts
18-Feb-19 20:11 34.819533 -117.206898 261 20101ft 230kts
18-Feb-19 20:12 34.802929 -117.283634 262 19571ft 248kts
18-Feb-19 20:13 34.785606 -117.367568 261 18567ft 259kts
18-Feb-19 20:14 34.766827 -117.452802 259 17572ft 262kts
18-Feb-19 20:15 34.747151 -117.538299 259 16572ft 262kts
18-Feb-19 20:16 34.728463 -117.623002 260 15573ft 257kts
18-Feb-19 20:17 34.710412 -117.706722 260 14573ft 255kts
18-Feb-19 20:18 34.692018 -117.788869 260 13982ft 241kts
18-Feb-19 20:19 34.675123 -117.865166 260 13979ft 229kts
18-Feb-19 20:20 34.658949 -117.939434 260 13987ft 227kts
18-Feb-19 20:21 34.642593 -118.013187 261 13992ft 225kts
18-Feb-19 20:22 34.618773 -118.084037 238 14000ft 234kts
18-Feb-19 20:23 34.578727 -118.148752 238 13501ft 251kts
18-Feb-19 20:24 34.536538 -118.216448 236 13000ft 243kts
18-Feb-19 20:25 34.496969 -118.279832 237 12994ft 231kts
18-Feb-19 20:26 34.458586 -118.341577 236 12998ft 228kts
18-Feb-19 20:27 34.419896 -118.402579 235 13001ft 229kts
18-Feb-19 20:27 34.371398 -118.404462 144 13010ft 234kts
18-Feb-19 20:28 34.313017 -118.357535 149 11652ft 260kts
18-Feb-19 20:29 34.247550 -118.321602 154 10253ft 255kts
18-Feb-19 20:31 34.173271 -118.286987 157 8621ft 233kts
18-Feb-19 20:31 34.125548 -118.259612 150 7456ft 224kts
18-Feb-19 20:32 34.071458 -118.223236 151 6143ft 215kts
18-Feb-19 20:33 34.018293 -118.195585 169 5074ft 211kts
18-Feb-19 20:35 33.953357 -118.185938 195 3669ft 194kts
18-Feb-19 20:35 33.939453 -118.229107 276 2895ft 157kts
18-Feb-19 20:36 33.943074 -118.272069 276 2305ft 119kts
18-Feb-19 20:37 33.943151 -118.312557 270 1573ft 120kts
18-Feb-19 20:38 33.939540 -118.349321 245 915ft 105kts
18-Feb-19 20:39 33.937271 -118.383437 266 174ft 96kts
18-Feb-19 20:40 33.935169 -118.393876 212 131ft 3kts
18-Feb-19 20:41 33.934791 -118.395615 262 131ft 15kts
18-Feb-19 20:42 33.934197 -118.398272 172 131ft 5kts
18-Feb-19 20:43 33.933010 -118.399060 224 131ft 4kts
18-Feb-19 20:44 33.932723 -118.399827 83 131ft 0kts
18-Feb-19 20:45 33.932723 -118.399826 83 131ft 0kts
18-Feb-19 20:46 33.932723 -118.399826 83 131ft 0kts

Navigation Log

Ident Type
Flight plan parsing failed, navigation log unavailable